»·PEaware :: N122SQ KAPA-4V0

N122SQ :: KAPA-4V0

FLIGHT INFORMATION

Flight Status: Arrived
Operator: Privately registered:
United States
More flights under this callsign
Pilot: Gabor H. (24209)
Aircraft: CIRRUS SR-22 TURBO
(S22T)
More flights by this aircraft type
Origin: KAPA Centennial
United States
Destination: 4V0 Rangely
United States
More flights between these airports :: More routes between these airports
Route: DEN2 DVV V8 RLG V200 EKR
File this flight plan on PilotEdge
Remarks:
Altitude:
(Current/Filed)
16,000ft
Speed:
(Current/Filed)
160kts
Departed: 20-Nov-23 08:15 AM
Arrived: 20-Nov-23 09:26 AM
Distance/Time
Traveled:
183nm/1:11
Distance/Time
To Go:
Arrived

Flight Plot

Page will automatically refresh every two minutes.

Flight plan parsing failed; only flown route is shown


Map Options




Map Legend


Flown Route
Filed Route
Departure Airport
Arrival Airport
Navaid (VOR, NDB)
Fix

Horizontal Profiles

Position Reports

Time Latitude Longitude Heading Altitude Ground
Speed
20-Nov-23 07:56 39.573450 -104.843048 89 5887ft 0kts
20-Nov-23 07:57 39.573450 -104.843048 89 5887ft 0kts
20-Nov-23 07:58 39.573450 -104.843048 89 5887ft 0kts
20-Nov-23 07:59 39.573450 -104.843048 89 5887ft 0kts
20-Nov-23 08:00 39.573450 -104.843048 89 5887ft 0kts
20-Nov-23 08:01 39.573450 -104.843048 89 5887ft 0kts
20-Nov-23 08:02 39.573450 -104.843048 89 5887ft 0kts
20-Nov-23 08:03 39.573450 -104.843048 89 5887ft 0kts
20-Nov-23 08:04 39.573450 -104.843048 89 5887ft 0kts
20-Nov-23 08:05 39.573450 -104.843048 89 5887ft 0kts
20-Nov-23 08:06 39.573450 -104.843048 89 5887ft 0kts
20-Nov-23 08:07 39.573450 -104.843048 89 5887ft 0kts
20-Nov-23 08:08 39.572182 -104.843267 288 5887ft 11kts
20-Nov-23 08:09 39.574011 -104.849346 229 5887ft 10kts
20-Nov-23 08:10 39.569714 -104.849397 177 5887ft 25kts
20-Nov-23 08:11 39.561729 -104.849041 172 5887ft 29kts
20-Nov-23 08:12 39.556875 -104.848991 252 5887ft 0kts
20-Nov-23 08:13 39.557121 -104.850232 0 5887ft 0kts
20-Nov-23 08:14 39.572840 -104.850603 3 6240ft 109kts
20-Nov-23 08:15 39.607312 -104.850701 0 7410ft 116kts
20-Nov-23 08:16 39.641989 -104.848288 359 8547ft 123kts
20-Nov-23 08:17 39.676918 -104.840740 6 9677ft 126kts
20-Nov-23 08:18 39.712742 -104.829578 7 10811ft 126kts
20-Nov-23 08:19 39.747784 -104.818853 7 11832ft 127kts
20-Nov-23 08:20 39.783215 -104.808355 7 12817ft 130kts
20-Nov-23 08:21 39.819167 -104.798075 7 13788ft 131kts
20-Nov-23 08:22 39.845305 -104.818430 287 14687ft 154kts
20-Nov-23 08:23 39.852688 -104.875546 287 15573ft 158kts
20-Nov-23 08:24 39.871229 -104.929293 307 16007ft 166kts
20-Nov-23 08:25 39.897351 -104.985910 307 16001ft 168kts
20-Nov-23 08:26 39.920370 -105.041413 291 16011ft 175kts
20-Nov-23 08:27 39.926050 -105.105862 282 16005ft 180kts
20-Nov-23 08:28 39.930158 -105.171185 282 16005ft 180kts
20-Nov-23 08:29 39.934340 -105.238251 282 16006ft 181kts
20-Nov-23 08:30 39.938504 -105.305946 282 16006ft 180kts
20-Nov-23 08:31 39.942748 -105.375545 282 16015ft 180kts
20-Nov-23 08:32 39.946884 -105.443988 282 16029ft 180kts
20-Nov-23 08:33 39.951264 -105.517242 282 15997ft 182kts
20-Nov-23 08:34 39.955462 -105.588127 282 15996ft 181kts
20-Nov-23 08:35 39.959456 -105.655938 281 15878ft 184kts
20-Nov-23 08:36 39.963393 -105.724836 281 15878ft 182kts
20-Nov-23 08:37 39.967350 -105.793088 281 15877ft 181kts
20-Nov-23 08:38 39.971157 -105.860042 281 15880ft 180kts
20-Nov-23 08:39 39.975175 -105.931535 281 15905ft 180kts
20-Nov-23 08:40 39.978996 -106.000279 281 15929ft 180kts
20-Nov-23 08:41 39.982806 -106.069478 281 15952ft 181kts
20-Nov-23 08:42 39.986601 -106.139171 281 15959ft 181kts
20-Nov-23 08:43 39.990209 -106.206240 281 15968ft 181kts
20-Nov-23 08:44 39.993820 -106.274049 281 15968ft 181kts
20-Nov-23 08:45 39.997471 -106.343411 281 15968ft 181kts
20-Nov-23 08:46 40.000886 -106.409185 281 15966ft 182kts
20-Nov-23 08:47 40.004378 -106.477806 281 15970ft 181kts
20-Nov-23 08:48 40.007718 -106.545190 281 15976ft 182kts
20-Nov-23 08:49 40.011091 -106.614104 281 15977ft 182kts
20-Nov-23 08:50 40.014318 -106.680897 281 15976ft 182kts
20-Nov-23 08:51 40.017587 -106.749260 281 15976ft 182kts
20-Nov-23 08:52 40.020790 -106.817027 281 15977ft 182kts
20-Nov-23 08:53 40.023927 -106.884626 281 15982ft 182kts
20-Nov-23 08:54 40.027014 -106.951606 281 15995ft 182kts
20-Nov-23 08:55 40.030018 -107.017645 281 16008ft 182kts
20-Nov-23 08:56 40.032987 -107.083862 281 16014ft 183kts
20-Nov-23 08:57 40.036056 -107.151143 279 16015ft 183kts
20-Nov-23 08:58 40.038814 -107.217878 281 16014ft 184kts
20-Nov-23 08:59 40.041735 -107.284505 281 16014ft 183kts
20-Nov-23 09:00 40.044584 -107.351027 281 16014ft 183kts
20-Nov-23 09:01 40.047422 -107.418613 281 16016ft 183kts
20-Nov-23 09:02 40.050216 -107.486042 281 16015ft 184kts
20-Nov-23 09:03 40.052934 -107.552687 281 16023ft 184kts
20-Nov-23 09:04 40.055614 -107.619310 281 16023ft 184kts
20-Nov-23 09:05 40.058310 -107.687233 281 16022ft 184kts
20-Nov-23 09:06 40.060920 -107.754337 281 16022ft 184kts
20-Nov-23 09:07 40.062473 -107.821732 269 15924ft 196kts
20-Nov-23 09:08 40.054740 -107.896271 273 14938ft 211kts
20-Nov-23 09:09 40.076870 -107.959730 297 14151ft 190kts
20-Nov-23 09:10 40.094852 -108.024063 297 13613ft 187kts
20-Nov-23 09:11 40.112764 -108.088938 297 13146ft 186kts
20-Nov-23 09:12 40.130201 -108.152147 297 12673ft 185kts
20-Nov-23 09:13 40.147661 -108.215738 297 12161ft 185kts
20-Nov-23 09:14 40.164950 -108.278787 296 11624ft 186kts
20-Nov-23 09:15 40.160762 -108.349665 265 10682ft 201kts
20-Nov-23 09:16 40.150605 -108.420165 259 10053ft 189kts
20-Nov-23 09:17 40.133455 -108.485017 252 9459ft 192kts
20-Nov-23 09:18 40.111589 -108.548235 240 8443ft 190kts
20-Nov-23 09:19 40.085110 -108.607420 240 7622ft 184kts
20-Nov-23 09:20 40.065571 -108.666977 248 7044ft 178kts
20-Nov-23 09:21 40.074760 -108.722070 299 6191ft 130kts
20-Nov-23 09:22 40.079312 -108.767679 262 5914ft 118kts
20-Nov-23 09:23 40.083745 -108.796606 339 5597ft 96kts
20-Nov-23 09:24 40.092998 -108.768972 77 5242ft 68kts
20-Nov-23 09:25 40.094414 -108.759056 162 5249ft 11kts
20-Nov-23 09:26 40.093455 -108.757730 171 5258ft 1kts
20-Nov-23 09:27 40.093441 -108.757728 169 5259ft 0kts
20-Nov-23 09:28 40.093441 -108.757728 169 5259ft 0kts
20-Nov-23 09:29 40.093441 -108.757728 169 5259ft 0kts
20-Nov-23 09:30 40.093441 -108.757728 169 5259ft 0kts
20-Nov-23 09:31 40.093441 -108.757728 169 5259ft 0kts
20-Nov-23 09:32 40.093441 -108.757728 169 5259ft 0kts
20-Nov-23 09:33 40.093441 -108.757728 169 5259ft 0kts
20-Nov-23 09:34 40.093441 -108.757728 169 5259ft 0kts
20-Nov-23 09:35 40.093441 -108.757728 169 5259ft 0kts
20-Nov-23 09:36 40.093441 -108.757728 169 5259ft 0kts
20-Nov-23 09:37 40.093441 -108.757728 169 5259ft 0kts
20-Nov-23 09:38 40.093441 -108.757728 169 5259ft 0kts
20-Nov-23 09:39 40.093441 -108.757728 169 5259ft 0kts

Navigation Log

Ident Type
Flight plan parsing failed, navigation log unavailable